Fort Dodge, IA

11:45 PM CDT on August 01, 2014 (GMT -0500)
Boone Municipal (KBNW) Elev 1161 ft | 42.05 °N, 93.85 °W | Change Station

Current weather conditions updated 10 minutes ago

Clear
Clear
66 °F
Feels Like 66 °F
N
0
Wind Variable Wind from North

Tomorrow is forecast to be nearly the same temperature as today.

Today
High -- | Low -- °F
--% Chance of Precip.
Yesterday
High -- | Low -- °F
Precip. -- in
6:08 AM 8:36 PM
Waxing Crescent, 32% visible
Pressure 30.11 in
Visibility 10.0 miles
Clouds Clear
Dew Point 61 °F
Humidity 83%
Rainfall 0.00 in
Snow Depth Not available.
UV 0 out of 12
Pollen 7.60 out of 12
Air Quality Not available.
Flu Activity Not available.
METAR KBNW 020435Z AUTO 00000KT 10SM CLR 19/16 A3011 RMK AO2

More Conditions Fewer Conditions

Pressure 30.11 in
Visibility 10.0 miles
Clouds Clear
Dew Point 61 °F
Humidity 83%
Rainfall 0.00 in
Snow Depth Not available.
UV 0 out of 12
Pollen 7.60 out of 12
Air Quality Not available.
Flu Activity Not available.
METAR KBNW 020435Z AUTO 00000KT 10SM CLR 19/16 A3011 RMK AO2

More Conditions Fewer Conditions

10-Day Weather Forecast

Almanac

Astronomy

Aug. 01, 2014 Rise Set
Actual Time 6:08 AM CDT 8:36 PM CDT
Civil Twilight 5:37 AM CDT 9:08 PM CDT
Nautical Twilight 4:57 AM CDT 9:47 PM CDT
Astronomical Twilight 4:12 AM CDT 10:32 PM CDT
Moon 11:41 AM CDT (8/1) 11:13 PM CDT (8/1)
Length of Visible Light 15h 31m
Length of Day
14h 27m
Tomorrow will be 2m 11s shorter.
Waxing Crescent, 32% of the Moon is Illuminated
Aug 2
Waxing Crescent
Aug 3
First Quarter
Aug 10
Full
Aug 17
Last Quarter
Aug 25
New

Yesterday's Extremes

State Highs State Lows

Community

WunderPhotos

Upload Photos

1,739,823 photos uploaded!

Nearby

Snow Depth

Station Depth Elevation
No new snow has been reported.

Earthquake Activity

City Distance Mag. Time & Date
No recent earthquake activity has been reported nearby.
Minimum magnitude displayed is 2.5.

Coastal Water Temperatures

Place Temperature
No Stations Reporting

Nearby Weather Stations

Station Location Temp. Dew Point Humidity Wind Precip. Elev Updated Type
Duncombe School area, Fort Dodge, IA 66.6 °F 62 °F 86% ENE  at  0.0 mph 0.00 in / hr 1109 ft 11:44 PM CDT Rapid Fire
Expo Pool Area, Fort Dodge, IA 65.3 °F 61 °F 85% SSE  at  0.0 mph - / hr 1093 ft 11:37 PM CDT Normal
Badger IA, Badger, IA 66.9 °F 61 °F 81% SW  at  0.0 mph 0.00 in / hr 1142 ft 11:40 PM CDT Normal
NW of Badger by DSM River, Badger, IA 64.3 °F 59 °F 85% East  at  0.0 mph 0.00 in / hr 1125 ft 11:44 PM CDT Rapid Fire
Pioneer Valley, Humboldt, IA 66.2 °F 63 °F 89% West  at  0.7 mph 0.00 in / hr 1125 ft 11:39 PM CDT Normal
Dakota City, IA 66.1 °F 62 °F 87% South  at  0.0 mph 0.00 in / hr 1130 ft 11:41 PM CDT Normal
Lohrville NE, Lohrville, IA 65.5 °F 62 °F 89% SSE  at  1.6 mph 0.00 in / hr 1170 ft 11:44 PM CDT Rapid Fire

Show More Stations Show Fewer Stations